Time;durP1;ratioP1;P1;durP2;ratioP2;P2;SDS_P1;SDS_P2;PMS_P1;PMS_P2;Temp;Humidity;BMP_temperature;BMP_pressure;BME280_temperature;BME280_humidity;BME280_pressure;Samples;Min_cycle;Max_cycle;Signal;HPM_P1;HPM_P2
2021/07/14 00:02:24;;;;;;;15.75;14.15;;;;;;;;;;4980745;28;20030;-94
2021/07/14 00:04:50;;;;;;;15.80;14.20;;;;;;;;;;4997411;28;20030;-93
2021/07/14 00:07:15;;;;;;;18.27;15.75;;;;;;;;;;4981259;28;20042;-93
2021/07/14 00:09:44;;;;;;;17.08;14.88;;;;;;;;;;4980648;28;20038;-92
2021/07/14 00:12:14;;;;;;;23.20;20.45;;;;;;;;;;4965582;28;20064;-92
2021/07/14 00:17:01;;;;;;;16.92;15.13;;;;;;;;;;4981677;28;20037;-93
2021/07/14 00:25:20;;;;;;;18.73;15.70;;;;;;;;;;5001618;28;20046;-96
2021/07/14 00:28:42;;;;;;;18.48;14.75;;;;;;;;;;5014813;28;20392;-95
2021/07/14 00:31:30;;;;;;;18.30;15.95;;;;;;;;;;4996187;28;20072;-95
2021/07/14 00:34:24;;;;;;;18.58;14.68;;;;;;;;;;5013563;28;20460;-95
2021/07/14 00:36:53;;;;;;;15.77;13.65;;;;;;;;;;4981394;28;20133;-94
2021/07/14 00:40:17;;;;;;;18.50;15.27;;;;;;;;;;4981042;28;20072;-95
2021/07/14 00:43:20;;;;;;;16.02;14.20;;;;;;;;;;4996907;28;20508;-95
2021/07/14 00:46:52;;;;;;;15.75;13.93;;;;;;;;;;5013891;28;20037;-96
2021/07/14 00:50:20;;;;;;;16.70;14.10;;;;;;;;;;5013613;28;20041;-94
2021/07/14 00:52:53;;;;;;;16.92;13.85;;;;;;;;;;4997783;28;20046;-95
2021/07/14 00:55:23;;;;;;;14.30;12.80;;;;;;;;;;4981651;28;20026;-93
2021/07/14 00:57:53;;;;;;;14.45;12.25;;;;;;;;;;4980586;28;20041;-92
2021/07/14 01:00:22;;;;;;;13.73;11.80;;;;;;;;;;4996838;28;20038;-92
2021/07/14 01:02:54;;;;;;;14.43;11.73;;;;;;;;;;4980088;28;20038;-91
2021/07/14 01:05:35;;;;;;;14.18;12.35;;;;;;;;;;4980416;28;20447;-91
2021/07/14 01:08:50;;;;;;;14.98;11.85;;;;;;;;;;4980431;28;20412;-94
2021/07/14 01:12:14;;;;;;;14.25;12.40;;;;;;;;;;5007632;28;20133;-94
2021/07/14 01:15:17;;;;;;;15.07;11.52;;;;;;;;;;4979265;28;20049;-93
2021/07/14 01:18:01;;;;;;;12.90;11.05;;;;;;;;;;4980681;28;20447;-93
2021/07/14 01:20:56;;;;;;;13.68;11.80;;;;;;;;;;5013187;28;20409;-93
2021/07/14 01:23:40;;;;;;;11.32;9.20;;;;;;;;;;4980334;28;20859;-92
2021/07/14 01:26:31;;;;;;;12.55;10.32;;;;;;;;;;4996098;28;20087;-91
2021/07/14 01:28:59;;;;;;;10.75;9.70;;;;;;;;;;4995991;28;20038;-91
2021/07/14 01:31:27;;;;;;;11.07;9.90;;;;;;;;;;4980728;28;20056;-90
2021/07/14 01:33:57;;;;;;;12.52;10.00;;;;;;;;;;4980173;28;20483;-89
2021/07/14 01:36:26;;;;;;;11.80;10.00;;;;;;;;;;4976401;28;20058;-89
2021/07/14 01:38:54;;;;;;;12.00;9.25;;;;;;;;;;4974458;28;20416;-89
2021/07/14 01:41:21;;;;;;;11.48;10.30;;;;;;;;;;4979615;28;20037;-89
2021/07/14 01:43:50;;;;;;;10.63;9.43;;;;;;;;;;4979601;28;20033;-89
2021/07/14 01:46:16;;;;;;;10.60;9.43;;;;;;;;;;4995741;28;20551;-89
2021/07/14 01:48:45;;;;;;;10.15;9.00;;;;;;;;;;4995782;28;20069;-89
2021/07/14 01:51:11;;;;;;;12.77;9.52;;;;;;;;;;4979546;28;20034;-89
2021/07/14 01:53:37;;;;;;;10.60;8.80;;;;;;;;;;4963765;28;20060;-90
2021/07/14 01:56:11;;;;;;;10.50;9.40;;;;;;;;;;4960802;28;20048;-92
2021/07/14 01:58:38;;;;;;;10.07;8.77;;;;;;;;;;4995737;28;20045;-89
2021/07/14 02:01:07;;;;;;;11.85;9.73;;;;;;;;;;4963476;28;20038;-89
2021/07/14 02:06:01;;;;;;;9.95;8.90;;;;;;;;;;4975719;28;20034;-88
2021/07/14 02:08:27;;;;;;;10.95;9.30;;;;;;;;;;4979354;28;20492;-89
2021/07/14 02:10:56;;;;;;;11.48;9.18;;;;;;;;;;4978560;28;20121;-90
2021/07/14 02:13:23;;;;;;;10.77;9.52;;;;;;;;;;4980279;28;20512;-91
2021/07/14 02:15:53;;;;;;;10.68;9.02;;;;;;;;;;4963345;28;20029;-91
2021/07/14 02:18:23;;;;;;;10.23;9.00;;;;;;;;;;4995733;28;20489;-90
2021/07/14 02:20:59;;;;;;;10.30;9.20;;;;;;;;;;4995769;28;20038;-90
2021/07/14 02:23:25;;;;;;;10.35;8.85;;;;;;;;;;4995545;28;20436;-90
2021/07/14 02:25:54;;;;;;;13.02;9.98;;;;;;;;;;4979436;28;20407;-90
2021/07/14 02:28:20;;;;;;;10.30;9.25;;;;;;;;;;4979051;28;20180;-90
2021/07/14 02:30:49;;;;;;;9.55;8.57;;;;;;;;;;4979793;28;20463;-90
2021/07/14 02:33:17;;;;;;;11.15;8.52;;;;;;;;;;4975959;28;20453;-90
2021/07/14 02:35:46;;;;;;;9.82;8.55;;;;;;;;;;4978911;28;20145;-89
2021/07/14 02:38:28;;;;;;;10.68;9.57;;;;;;;;;;4995577;28;20045;-90
2021/07/14 02:41:06;;;;;;;9.98;8.43;;;;;;;;;;4981315;28;20504;-89
2021/07/14 02:43:37;;;;;;;10.27;9.18;;;;;;;;;;4999622;28;20038;-89
2021/07/14 02:46:10;;;;;;;11.40;10.20;;;;;;;;;;4995519;28;20030;-89
2021/07/14 02:48:40;;;;;;;10.32;9.07;;;;;;;;;;4948784;28;20104;-90
2021/07/14 02:51:07;;;;;;;10.55;9.13;;;;;;;;;;4947943;28;20468;-90
2021/07/14 02:53:37;;;;;;;9.63;8.65;;;;;;;;;;4979683;28;20413;-90
2021/07/14 02:56:14;;;;;;;9.82;8.43;;;;;;;;;;4947672;28;20030;-91
2021/07/14 02:58:42;;;;;;;10.55;9.40;;;;;;;;;;4949396;28;20035;-90
2021/07/14 03:01:12;;;;;;;9.93;8.93;;;;;;;;;;4947403;28;20398;-91
2021/07/14 03:03:42;;;;;;;11.00;9.73;;;;;;;;;;4987139;28;20042;-89
2021/07/14 03:06:08;;;;;;;10.10;8.90;;;;;;;;;;4998612;28;20030;-90
2021/07/14 03:08:37;;;;;;;9.82;8.73;;;;;;;;;;4982214;28;20393;-91
2021/07/14 03:11:13;;;;;;;10.43;9.32;;;;;;;;;;5015555;28;20041;-92
2021/07/14 03:13:46;;;;;;;10.90;9.00;;;;;;;;;;5015373;28;20091;-93
2021/07/14 03:16:17;;;;;;;10.43;9.38;;;;;;;;;;4998986;28;20508;-92
2021/07/14 03:18:51;;;;;;;10.15;9.10;;;;;;;;;;4999094;28;20049;-92
2021/07/14 03:21:31;;;;;;;10.45;8.73;;;;;;;;;;4995820;28;20862;-94
2021/07/14 03:24:38;;;;;;;10.00;8.93;;;;;;;;;;4963646;28;20762;-96
2021/07/14 03:27:09;;;;;;;10.07;8.50;;;;;;;;;;4963139;28;20049;-94
2021/07/14 03:29:40;;;;;;;9.13;8.18;;;;;;;;;;4983308;28;20062;-92
2021/07/14 03:32:10;;;;;;;9.70;8.77;;;;;;;;;;4966317;28;20034;-91
2021/07/14 03:34:38;;;;;;;10.50;8.75;;;;;;;;;;4982348;28;20042;-90
2021/07/14 03:37:10;;;;;;;10.27;8.23;;;;;;;;;;4982256;28;20042;-90
2021/07/14 03:39:42;;;;;;;9.07;7.72;;;;;;;;;;4981739;28;20037;-89
2021/07/14 03:42:14;;;;;;;9.13;8.02;;;;;;;;;;4982415;28;20033;-89
2021/07/14 03:44:45;;;;;;;8.95;8.15;;;;;;;;;;4982249;28;20062;-89
2021/07/14 03:47:13;;;;;;;8.60;7.55;;;;;;;;;;4966067;28;20519;-90
2021/07/14 03:49:40;;;;;;;10.90;8.35;;;;;;;;;;4981983;28;20040;-89
2021/07/14 03:52:07;;;;;;;9.15;7.05;;;;;;;;;;4981443;28;20026;-89
2021/07/14 03:54:34;;;;;;;9.05;8.15;;;;;;;;;;4981697;28;20053;-91
2021/07/14 03:57:03;;;;;;;7.95;7.15;;;;;;;;;;4981994;28;20408;-91
2021/07/14 03:59:34;;;;;;;8.82;7.53;;;;;;;;;;4981844;28;20069;-91
2021/07/14 04:02:06;;;;;;;8.80;6.80;;;;;;;;;;4965909;28;20033;-92
2021/07/14 04:04:36;;;;;;;7.57;6.78;;;;;;;;;;4966786;28;20475;-92
2021/07/14 04:07:06;;;;;;;8.02;7.22;;;;;;;;;;4965658;28;20041;-92
2021/07/14 04:09:33;;;;;;;7.72;6.68;;;;;;;;;;4981642;28;20038;-93
2021/07/14 04:12:20;;;;;;;7.15;6.45;;;;;;;;;;4981858;28;20042;-95
2021/07/14 04:14:52;;;;;;;7.05;6.38;;;;;;;;;;4997876;28;20496;-94
2021/07/14 04:17:19;;;;;;;8.50;6.90;;;;;;;;;;4981783;28;20092;-94
2021/07/14 04:19:48;;;;;;;8.65;6.75;;;;;;;;;;4981705;28;20065;-92
2021/07/14 04:22:18;;;;;;;7.40;6.57;;;;;;;;;;4981022;28;20120;-92
2021/07/14 04:24:46;;;;;;;8.57;6.88;;;;;;;;;;4981187;28;20542;-91
2021/07/14 04:27:13;;;;;;;7.40;6.55;;;;;;;;;;4981023;28;20034;-90
2021/07/14 04:29:41;;;;;;;7.20;6.43;;;;;;;;;;4980935;28;20069;-89
2021/07/14 04:32:09;;;;;;;7.30;6.55;;;;;;;;;;4980995;28;20385;-90
2021/07/14 04:34:35;;;;;;;7.00;6.22;;;;;;;;;;4981012;28;20037;-90
2021/07/14 04:37:04;;;;;;;7.88;6.25;;;;;;;;;;4965025;28;20415;-90
2021/07/14 04:39:31;;;;;;;7.07;6.38;;;;;;;;;;4964517;28;20026;-89
2021/07/14 04:41:58;;;;;;;7.68;6.57;;;;;;;;;;4980880;28;20041;-89
2021/07/14 04:44:38;;;;;;;6.70;6.00;;;;;;;;;;4980961;28;20092;-89
2021/07/14 04:47:04;;;;;;;7.57;6.78;;;;;;;;;;4984299;28;20037;-90
2021/07/14 04:49:30;;;;;;;7.55;6.63;;;;;;;;;;4980200;28;20117;-88
2021/07/14 04:51:56;;;;;;;8.02;6.53;;;;;;;;;;4980459;28;20124;-88
2021/07/14 04:54:24;;;;;;;8.63;6.57;;;;;;;;;;4980609;28;20029;-89
2021/07/14 04:56:50;;;;;;;7.55;6.75;;;;;;;;;;4980923;28;20034;-89
2021/07/14 04:59:18;;;;;;;6.18;5.57;;;;;;;;;;4980893;28;20500;-88
2021/07/14 05:01:46;;;;;;;7.63;6.25;;;;;;;;;;4976787;28;20405;-90
2021/07/14 05:04:18;;;;;;;6.07;5.47;;;;;;;;;;4976359;28;20038;-88
2021/07/14 05:06:47;;;;;;;8.02;7.20;;;;;;;;;;4977100;28;20107;-88
2021/07/14 05:09:16;;;;;;;7.68;6.70;;;;;;;;;;4979849;28;20038;-89
2021/07/14 05:11:44;;;;;;;7.50;5.97;;;;;;;;;;4996326;28;20030;-90
2021/07/14 05:14:17;;;;;;;7.13;6.38;;;;;;;;;;4964165;28;20456;-89
2021/07/14 05:16:44;;;;;;;7.85;6.68;;;;;;;;;;4960794;28;20441;-90
2021/07/14 05:19:14;;;;;;;7.75;6.40;;;;;;;;;;4977218;28;20049;-89
2021/07/14 05:21:42;;;;;;;7.53;6.70;;;;;;;;;;4977034;28;20493;-89
2021/07/14 05:24:11;;;;;;;7.05;6.07;;;;;;;;;;4976873;28;20034;-89
2021/07/14 05:26:38;;;;;;;6.55;5.50;;;;;;;;;;4977221;28;20412;-92
2021/07/14 05:29:05;;;;;;;6.65;5.97;;;;;;;;;;4960778;28;20043;-90
2021/07/14 05:31:35;;;;;;;7.30;6.38;;;;;;;;;;4960492;28;20089;-90
2021/07/14 05:34:03;;;;;;;7.15;6.38;;;;;;;;;;4979697;28;20428;-90
2021/07/14 05:36:32;;;;;;;7.45;5.68;;;;;;;;;;4979939;28;20061;-88
2021/07/14 05:39:00;;;;;;;7.07;6.13;;;;;;;;;;4995248;28;20817;-89
2021/07/14 05:41:25;;;;;;;6.80;6.15;;;;;;;;;;4963478;28;20121;-89
2021/07/14 05:43:51;;;;;;;7.40;6.70;;;;;;;;;;4995423;28;20181;-87
2021/07/14 05:46:18;;;;;;;7.25;6.55;;;;;;;;;;4994982;28;20038;-88
2021/07/14 05:48:43;;;;;;;7.60;5.90;;;;;;;;;;4978897;28;20058;-88
2021/07/14 05:51:09;;;;;;;6.00;5.35;;;;;;;;;;4975666;28;20102;-88
2021/07/14 05:53:36;;;;;;;6.60;5.90;;;;;;;;;;4976020;28;20084;-88
2021/07/14 05:56:03;;;;;;;6.57;5.90;;;;;;;;;;4964363;28;20046;-87
2021/07/14 05:58:29;;;;;;;6.03;5.35;;;;;;;;;;4990805;28;20087;-85
2021/07/14 06:00:54;;;;;;;6.05;5.45;;;;;;;;;;5011134;28;20050;-85
2021/07/14 06:03:23;;;;;;;5.80;5.18;;;;;;;;;;4977739;28;20037;-87
2021/07/14 06:05:49;;;;;;;6.72;5.47;;;;;;;;;;4962029;28;20038;-86
2021/07/14 06:08:14;;;;;;;6.40;5.72;;;;;;;;;;4978132;28;20504;-85
2021/07/14 06:10:40;;;;;;;6.10;5.50;;;;;;;;;;4978041;28;20076;-87
2021/07/14 06:13:08;;;;;;;5.65;5.00;;;;;;;;;;4962598;28;20084;-87
2021/07/14 06:15:34;;;;;;;5.63;5.03;;;;;;;;;;4980475;28;20045;-89
2021/07/14 06:18:01;;;;;;;6.53;5.10;;;;;;;;;;5014573;28;20077;-87
2021/07/14 06:20:35;;;;;;;5.63;4.78;;;;;;;;;;4999302;28;20048;-89
2021/07/14 06:23:01;;;;;;;5.93;4.75;;;;;;;;;;5015833;28;20030;-91
2021/07/14 06:25:30;;;;;;;5.70;4.60;;;;;;;;;;5015747;28;20045;-91
2021/07/14 06:27:57;;;;;;;6.18;4.72;;;;;;;;;;5015111;28;20113;-93
2021/07/14 06:30:29;;;;;;;6.15;4.82;;;;;;;;;;5015013;28;20527;-92
2021/07/14 06:32:55;;;;;;;6.22;4.43;;;;;;;;;;4998191;28;20136;-91
2021/07/14 06:35:21;;;;;;;5.65;4.68;;;;;;;;;;4963697;28;20046;-89
2021/07/14 06:37:49;;;;;;;5.50;4.95;;;;;;;;;;4963415;28;20034;-89
2021/07/14 06:40:21;;;;;;;6.10;4.72;;;;;;;;;;4979911;28;20041;-90
2021/07/14 06:42:48;;;;;;;5.13;4.63;;;;;;;;;;4966747;28;20061;-89
2021/07/14 06:45:14;;;;;;;5.07;4.05;;;;;;;;;;4967170;28;20041;-89
2021/07/14 06:47:40;;;;;;;6.00;4.32;;;;;;;;;;4963292;28;20031;-89
2021/07/14 06:50:11;;;;;;;5.40;4.63;;;;;;;;;;4979059;28;20042;-89
2021/07/14 06:52:39;;;;;;;4.93;4.43;;;;;;;;;;4963071;28;20037;-89
2021/07/14 06:55:11;;;;;;;5.65;4.43;;;;;;;;;;4982500;28;20050;-91
2021/07/14 06:57:37;;;;;;;5.05;4.00;;;;;;;;;;4982711;28;21800;-92
2021/07/14 07:00:05;;;;;;;5.03;4.05;;;;;;;;;;4983097;28;20033;-91
2021/07/14 07:02:32;;;;;;;4.50;3.95;;;;;;;;;;4982805;28;20041;-93
2021/07/14 07:05:02;;;;;;;4.70;3.85;;;;;;;;;;4999028;28;20471;-92
2021/07/14 07:07:32;;;;;;;5.13;4.40;;;;;;;;;;4983040;28;20401;-91
2021/07/14 07:10:01;;;;;;;4.55;3.70;;;;;;;;;;4999098;28;20068;-92
2021/07/14 07:12:28;;;;;;;4.13;3.72;;;;;;;;;;4982992;28;20042;-90
2021/07/14 07:14:57;;;;;;;5.82;3.78;;;;;;;;;;4998721;28;20034;-91
2021/07/14 07:17:26;;;;;;;4.57;3.50;;;;;;;;;;4998518;28;20505;-90
2021/07/14 07:19:52;;;;;;;3.70;3.30;;;;;;;;;;4998357;28;20508;-89
2021/07/14 07:22:19;;;;;;;4.22;3.33;;;;;;;;;;4982107;28;20030;-89
2021/07/14 07:24:46;;;;;;;3.72;3.22;;;;;;;;;;4982476;28;20038;-89
2021/07/14 07:27:12;;;;;;;4.00;3.60;;;;;;;;;;4965419;28;20033;-90
2021/07/14 07:29:38;;;;;;;5.47;3.67;;;;;;;;;;4965846;28;20100;-91
2021/07/14 07:32:05;;;;;;;4.30;3.17;;;;;;;;;;4997233;28;20121;-91
2021/07/14 07:34:32;;;;;;;4.10;3.50;;;;;;;;;;4965107;28;20508;-92
2021/07/14 07:37:00;;;;;;;4.10;3.50;;;;;;;;;;4997925;28;20037;-92
2021/07/14 07:39:27;;;;;;;6.32;3.10;;;;;;;;;;5014228;28;20093;-92
2021/07/14 07:41:53;;;;;;;4.38;3.13;;;;;;;;;;5014868;28;20053;-92
2021/07/14 07:44:19;;;;;;;4.75;4.10;;;;;;;;;;5013989;28;20038;-93
2021/07/14 07:46:44;;;;;;;5.90;3.30;;;;;;;;;;4981290;28;20084;-93
2021/07/14 07:49:10;;;;;;;5.35;3.10;;;;;;;;;;4997837;28;20408;-92
2021/07/14 07:51:36;;;;;;;5.10;3.40;;;;;;;;;;4965920;28;20038;-92
2021/07/14 07:54:03;;;;;;;4.20;3.17;;;;;;;;;;4965637;28;20057;-93
2021/07/14 07:56:33;;;;;;;5.55;3.78;;;;;;;;;;4981740;28;20053;-92
2021/07/14 07:59:02;;;;;;;4.40;3.28;;;;;;;;;;4981749;28;20048;-93
2021/07/14 08:01:28;;;;;;;4.47;3.25;;;;;;;;;;4999451;28;20044;-93
2021/07/14 08:03:54;;;;;;;4.20;3.72;;;;;;;;;;4990034;28;20406;-92
2021/07/14 08:06:19;;;;;;;5.90;3.83;;;;;;;;;;4981514;28;20034;-94
2021/07/14 08:08:45;;;;;;;4.53;3.85;;;;;;;;;;4961831;28;20035;-92
2021/07/14 08:11:10;;;;;;;5.03;3.95;;;;;;;;;;4962197;28;20042;-92
2021/07/14 08:13:36;;;;;;;4.85;3.58;;;;;;;;;;4961654;28;20046;-92
2021/07/14 08:16:01;;;;;;;5.63;3.90;;;;;;;;;;4974484;28;20030;-92
2021/07/14 08:18:27;;;;;;;4.65;4.07;;;;;;;;;;4980742;28;20034;-92
2021/07/14 08:20:53;;;;;;;6.20;3.83;;;;;;;;;;4980999;28;20034;-92
2021/07/14 08:23:20;;;;;;;4.70;3.78;;;;;;;;;;4964267;28;20022;-92
2021/07/14 08:25:46;;;;;;;5.50;4.22;;;;;;;;;;4977119;28;20093;-93
2021/07/14 08:28:12;;;;;;;6.05;3.65;;;;;;;;;;4967510;28;20865;-93
2021/07/14 08:30:38;;;;;;;4.28;3.65;;;;;;;;;;4980921;28;20037;-92
2021/07/14 08:33:04;;;;;;;4.65;3.55;;;;;;;;;;4980612;28;20022;-92
2021/07/14 08:35:29;;;;;;;5.30;3.75;;;;;;;;;;4980297;28;20046;-92
2021/07/14 08:37:55;;;;;;;4.85;3.90;;;;;;;;;;4979016;28;20038;-91
2021/07/14 08:40:20;;;;;;;4.82;3.85;;;;;;;;;;4979818;28;20083;-92
2021/07/14 08:42:49;;;;;;;5.40;3.80;;;;;;;;;;4993359;28;20044;-91
2021/07/14 08:45:17;;;;;;;6.88;3.78;;;;;;;;;;4967330;28;20039;-92
2021/07/14 08:47:43;;;;;;;4.13;3.38;;;;;;;;;;4978739;28;20034;-92
2021/07/14 08:50:10;;;;;;;4.57;3.08;;;;;;;;;;4977278;28;20058;-92
2021/07/14 08:52:38;;;;;;;4.40;3.50;;;;;;;;;;4981887;28;20034;-92
2021/07/14 08:55:04;;;;;;;4.57;3.80;;;;;;;;;;4979499;28;20393;-91
2021/07/14 08:57:30;;;;;;;5.50;3.47;;;;;;;;;;4979679;28;20025;-92
2021/07/14 08:59:55;;;;;;;4.32;3.67;;;;;;;;;;4995962;28;20523;-92
2021/07/14 09:02:20;;;;;;;6.90;4.22;;;;;;;;;;4980323;28;20028;-91
2021/07/14 09:04:46;;;;;;;4.97;3.92;;;;;;;;;;4979799;28;20068;-90
2021/07/14 09:07:13;;;;;;;3.63;3.22;;;;;;;;;;4979985;28;20060;-91
2021/07/14 09:09:39;;;;;;;4.90;3.92;;;;;;;;;;4979592;28;20065;-91
2021/07/14 09:12:09;;;;;;;5.88;4.35;;;;;;;;;;4979293;28;20496;-91
2021/07/14 09:14:36;;;;;;;16.75;13.20;;;;;;;;;;4962913;28;20038;-91
2021/07/14 09:17:27;;;;;;;12.63;8.45;;;;;;;;;;4995315;28;20033;-91
2021/07/14 09:20:14;;;;;;;15.00;10.40;;;;;;;;;;4982642;28;20038;-91
2021/07/14 09:22:40;;;;;;;30.50;22.42;;;;;;;;;;4981369;28;20497;-91
2021/07/14 09:25:16;;;;;;;24.77;19.52;;;;;;;;;;4979705;28;20041;-90
2021/07/14 09:27:55;;;;;;;25.95;19.88;;;;;;;;;;4978837;28;20087;-93
2021/07/14 09:30:22;;;;;;;21.30;15.38;;;;;;;;;;4954627;28;20038;-90
2021/07/14 09:33:01;;;;;;;19.90;13.95;;;;;;;;;;4979841;28;20037;-94
2021/07/14 09:35:31;;;;;;;19.77;15.73;;;;;;;;;;4996089;28;20555;-92
2021/07/14 09:37:59;;;;;;;20.98;15.13;;;;;;;;;;4979543;28;20034;-92
2021/07/14 09:40:24;;;;;;;20.77;14.75;;;;;;;;;;4979069;28;20038;-92
2021/07/14 09:42:58;;;;;;;19.63;14.55;;;;;;;;;;4962570;28;20076;-92
2021/07/14 09:45:42;;;;;;;16.90;13.35;;;;;;;;;;4995842;28;20128;-92
2021/07/14 09:48:09;;;;;;;18.83;13.00;;;;;;;;;;4995373;28;20504;-93
2021/07/14 09:50:39;;;;;;;16.27;12.48;;;;;;;;;;4978553;28;20030;-92
2021/07/14 09:53:10;;;;;;;13.98;10.80;;;;;;;;;;4977277;28;20136;-93
2021/07/14 09:55:38;;;;;;;15.27;11.52;;;;;;;;;;4978003;28;20030;-94
2021/07/14 09:58:13;;;;;;;14.15;10.48;;;;;;;;;;4965904;28;20034;-93
2021/07/14 10:00:41;;;;;;;13.05;9.55;;;;;;;;;;4979438;28;20046;-92
2021/07/14 10:03:06;;;;;;;12.15;8.90;;;;;;;;;;4962908;28;20021;-92
2021/07/14 10:05:32;;;;;;;14.57;10.93;;;;;;;;;;4963113;28;20378;-93
2021/07/14 10:08:17;;;;;;;15.13;8.88;;;;;;;;;;4962901;28;20030;-93
2021/07/14 10:10:43;;;;;;;13.55;9.48;;;;;;;;;;4963197;28;20034;-92
2021/07/14 10:13:10;;;;;;;12.35;8.88;;;;;;;;;;4979407;28;20084;-92
2021/07/14 10:15:35;;;;;;;15.00;9.60;;;;;;;;;;4963051;28;20504;-94
2021/07/14 10:18:01;;;;;;;9.82;7.80;;;;;;;;;;4975661;28;20089;-92
2021/07/14 10:20:35;;;;;;;11.25;7.70;;;;;;;;;;4991975;28;20042;-93
2021/07/14 10:23:04;;;;;;;11.23;6.93;;;;;;;;;;4991899;28;20031;-94
2021/07/14 10:25:30;;;;;;;10.50;7.25;;;;;;;;;;4992198;28;20058;-92
2021/07/14 10:27:57;;;;;;;9.43;7.70;;;;;;;;;;4959717;28;20049;-92
2021/07/14 10:30:22;;;;;;;10.20;7.13;;;;;;;;;;4959883;28;20034;-92
2021/07/14 10:32:48;;;;;;;9.95;6.70;;;;;;;;;;4991927;28;20484;-92
2021/07/14 10:35:15;;;;;;;11.05;7.25;;;;;;;;;;4991926;28;20038;-92
2021/07/14 10:37:44;;;;;;;11.48;6.40;;;;;;;;;;4991590;28;20034;-93
2021/07/14 10:40:10;;;;;;;9.15;6.93;;;;;;;;;;4991844;28;20038;-93
2021/07/14 10:42:35;;;;;;;9.73;6.78;;;;;;;;;;4959953;28;20026;-92
2021/07/14 10:45:03;;;;;;;7.82;6.20;;;;;;;;;;4976001;28;20038;-92
2021/07/14 10:47:28;;;;;;;9.73;6.18;;;;;;;;;;4976115;28;20030;-93
2021/07/14 10:49:55;;;;;;;9.18;5.80;;;;;;;;;;4959862;28;20049;-91
2021/07/14 10:52:20;;;;;;;8.45;6.03;;;;;;;;;;4975164;28;20041;-92
2021/07/14 10:54:45;;;;;;;6.70;5.60;;;;;;;;;;4991637;28;20039;-92
2021/07/14 10:57:11;;;;;;;7.57;6.07;;;;;;;;;;4992053;28;20030;-92
2021/07/14 10:59:37;;;;;;;6.30;5.10;;;;;;;;;;4975387;28;20043;-93
2021/07/14 11:02:02;;;;;;;8.32;5.70;;;;;;;;;;4961511;28;20045;-92
2021/07/14 11:04:28;;;;;;;7.85;5.82;;;;;;;;;;4962926;28;20039;-92
2021/07/14 11:06:54;;;;;;;7.57;6.05;;;;;;;;;;4978946;28;20037;-92
2021/07/14 11:09:46;;;;;;;7.15;5.93;;;;;;;;;;4995199;28;20070;-91
2021/07/14 11:12:37;;;;;;;7.93;5.70;;;;;;;;;;4995255;28;20034;-93
2021/07/14 11:15:04;;;;;;;6.40;5.50;;;;;;;;;;4979069;28;20038;-93
2021/07/14 11:17:31;;;;;;;5.68;4.53;;;;;;;;;;4998489;28;20034;-93
2021/07/14 11:20:13;;;;;;;6.95;5.13;;;;;;;;;;4965855;28;20145;-94
2021/07/14 11:22:39;;;;;;;6.68;5.18;;;;;;;;;;4967507;28;20035;-92
2021/07/14 11:25:24;;;;;;;6.95;5.13;;;;;;;;;;4981949;28;20416;-91
2021/07/14 11:27:49;;;;;;;7.28;5.07;;;;;;;;;;4965793;28;20042;-92
2021/07/14 11:30:15;;;;;;;7.50;5.18;;;;;;;;;;4998280;28;20048;-92
2021/07/14 11:32:43;;;;;;;6.72;5.30;;;;;;;;;;4998144;28;20535;-92
2021/07/14 11:35:20;;;;;;;7.05;5.72;;;;;;;;;;4998145;28;20042;-92
2021/07/14 11:37:52;;;;;;;5.60;4.88;;;;;;;;;;4966174;28;20496;-91
2021/07/14 11:40:17;;;;;;;5.65;5.00;;;;;;;;;;4997684;28;20129;-93
2021/07/14 11:43:03;;;;;;;7.03;4.82;;;;;;;;;;4998207;28;20125;-93
2021/07/14 11:45:35;;;;;;;5.68;4.70;;;;;;;;;;4982415;28;20053;-92
2021/07/14 11:48:00;;;;;;;;;;;;;;;;;;4998163;28;20057;-92
2021/07/14 11:50:45;;;;;;;7.53;5.13;;;;;;;;;;4997833;28;19909;-92
2021/07/14 11:53:46;;;;;;;6.15;4.65;;;;;;;;;;4981372;28;20033;-92
2021/07/14 11:56:26;;;;;;;6.10;4.85;;;;;;;;;;5013361;28;20042;-91
2021/07/14 11:58:58;;;;;;;5.72;4.75;;;;;;;;;;5014023;28;20060;-91
2021/07/14 12:01:27;;;;;;;5.55;4.45;;;;;;;;;;5014094;28;20046;-91
2021/07/14 12:06:45;;;;;;;5.20;4.40;;;;;;;;;;5012851;28;20030;-92
2021/07/14 12:09:18;;;;;;;5.47;4.70;;;;;;;;;;4996470;28;20565;-93
2021/07/14 12:11:44;;;;;;;6.20;4.50;;;;;;;;;;4994796;28;20033;-93
2021/07/14 12:14:15;;;;;;;4.57;4.05;;;;;;;;;;4994306;28;20053;-94
2021/07/14 12:16:44;;;;;;;6.63;4.40;;;;;;;;;;4981387;28;20040;-95
2021/07/14 12:19:09;;;;;;;5.88;5.20;;;;;;;;;;4961302;28;20046;-94
2021/07/14 12:21:40;;;;;;;5.95;4.65;;;;;;;;;;4980109;28;20111;-93
2021/07/14 12:24:07;;;;;;;7.90;5.05;;;;;;;;;;4977249;28;20066;-92
2021/07/14 12:26:33;;;;;;;5.70;4.10;;;;;;;;;;4967134;28;20049;-92
2021/07/14 12:28:58;;;;;;;5.57;4.80;;;;;;;;;;4979388;28;20619;-92
2021/07/14 12:31:24;;;;;;;5.38;4.45;;;;;;;;;;4964916;28;20069;-94
2021/07/14 12:33:53;;;;;;;7.70;4.18;;;;;;;;;;4980359;28;20045;-92
2021/07/14 12:36:20;;;;;;;6.03;4.47;;;;;;;;;;4980521;28;20034;-93
2021/07/14 12:38:55;;;;;;;6.53;4.85;;;;;;;;;;4980093;28;20034;-91
2021/07/14 12:41:24;;;;;;;5.85;3.83;;;;;;;;;;4974025;28;20037;-92
2021/07/14 12:44:10;;;;;;;5.43;3.92;;;;;;;;;;4961209;28;20042;-92
2021/07/14 12:46:36;;;;;;;5.38;3.90;;;;;;;;;;4960800;28;20450;-92
2021/07/14 12:49:12;;;;;;;5.50;4.43;;;;;;;;;;4980575;28;20549;-93
2021/07/14 12:51:38;;;;;;;4.93;4.20;;;;;;;;;;4980216;28;20117;-91
2021/07/14 12:54:03;;;;;;;4.93;3.92;;;;;;;;;;4970476;28;20049;-94
2021/07/14 12:56:29;;;;;;;12.95;10.77;;;;;;;;;;4976886;28;20501;-93
2021/07/14 12:59:04;;;;;;;39.00;31.35;;;;;;;;;;4976811;28;20125;-91
2021/07/14 13:01:30;;;;;;;26.17;21.80;;;;;;;;;;4987860;28;20057;-93
2021/07/14 13:03:57;;;;;;;38.47;29.30;;;;;;;;;;4962327;28;20034;-91
2021/07/14 13:06:22;;;;;;;37.38;28.17;;;;;;;;;;4979791;28;20038;-93
2021/07/14 13:08:49;;;;;;;40.47;29.83;;;;;;;;;;4963665;28;20046;-92
2021/07/14 13:11:14;;;;;;;33.90;25.63;;;;;;;;;;4980017;28;20416;-92
2021/07/14 13:13:39;;;;;;;33.60;24.63;;;;;;;;;;4979300;28;20038;-93
2021/07/14 13:16:06;;;;;;;33.28;23.95;;;;;;;;;;4982301;28;20049;-92
2021/07/14 13:18:33;;;;;;;28.10;22.05;;;;;;;;;;4979344;28;20030;-91
2021/07/14 13:20:59;;;;;;;28.35;20.45;;;;;;;;;;4993989;28;20035;-91
2021/07/14 13:23:26;;;;;;;23.33;18.67;;;;;;;;;;4979233;28;20059;-89
2021/07/14 13:25:52;;;;;;;23.45;17.85;;;;;;;;;;4975467;28;20031;-91
2021/07/14 13:28:25;;;;;;;22.65;17.13;;;;;;;;;;4961937;28;20057;-89
2021/07/14 13:30:51;;;;;;;19.60;14.35;;;;;;;;;;4998588;28;20065;-86
2021/07/14 13:33:17;;;;;;;20.42;15.25;;;;;;;;;;5015017;28;20044;-89
2021/07/14 13:35:48;;;;;;;20.05;14.68;;;;;;;;;;4981745;28;20026;-88
2021/07/14 13:38:32;;;;;;;19.38;14.10;;;;;;;;;;4980240;28;20080;-89
2021/07/14 13:41:18;;;;;;;18.45;14.10;;;;;;;;;;4979148;28;20026;-91
2021/07/14 13:43:57;;;;;;;15.60;13.00;;;;;;;;;;4980219;28;20050;-90
2021/07/14 13:46:28;;;;;;;17.20;13.02;;;;;;;;;;4979416;28;20443;-92
2021/07/14 13:49:11;;;;;;;12.85;11.02;;;;;;;;;;4964234;28;20042;-92
2021/07/14 13:51:41;;;;;;;15.63;12.80;;;;;;;;;;4995399;28;20030;-92
2021/07/14 13:54:18;;;;;;;15.90;11.65;;;;;;;;;;4995179;28;20038;-92
2021/07/14 13:56:48;;;;;;;12.95;9.98;;;;;;;;;;4975827;28;20045;-89
2021/07/14 13:59:21;;;;;;;14.77;11.30;;;;;;;;;;4976544;28;20047;-93
2021/07/14 14:02:09;;;;;;;16.67;10.70;;;;;;;;;;4960033;28;20026;-92
2021/07/14 14:04:40;;;;;;;21.17;11.05;;;;;;;;;;4993826;28;20033;-89
2021/07/14 14:07:06;;;;;;;15.63;9.10;;;;;;;;;;4991883;28;20125;-88
2021/07/14 14:09:31;;;;;;;19.05;9.95;;;;;;;;;;4941185;28;20184;-85
2021/07/14 14:11:59;;;;;;;14.35;10.18;;;;;;;;;;4956789;28;20136;-86
2021/07/14 14:14:25;;;;;;;16.23;10.20;;;;;;;;;;4974354;28;20037;-86
2021/07/14 14:16:50;;;;;;;14.32;9.82;;;;;;;;;;4974247;28;20042;-88
2021/07/14 14:19:16;;;;;;;19.63;10.00;;;;;;;;;;4959471;28;20081;-86
2021/07/14 14:21:51;;;;;;;21.73;10.43;;;;;;;;;;4974404;28;20034;-89
2021/07/14 14:24:16;;;;;;;20.92;9.70;;;;;;;;;;4977321;28;20033;-89
2021/07/14 14:26:46;;;;;;;17.02;8.93;;;;;;;;;;4963143;28;20397;-88
2021/07/14 14:29:11;;;;;;;18.70;9.23;;;;;;;;;;4983950;28;20041;-87
2021/07/14 14:31:38;;;;;;;30.52;20.88;;;;;;;;;;4998272;28;20050;-89
2021/07/14 14:34:03;;;;;;;30.05;23.30;;;;;;;;;;4998298;28;20029;-88
2021/07/14 14:36:31;;;;;;;59.00;37.17;;;;;;;;;;4994620;28;20038;-87
2021/07/14 14:38:57;;;;;;;57.00;38.95;;;;;;;;;;4966359;28;20566;-87
2021/07/14 14:41:22;;;;;;;53.38;37.63;;;;;;;;;;4963472;28;20064;-89
2021/07/14 14:43:48;;;;;;;46.55;30.58;;;;;;;;;;4963123;28;20069;-89
2021/07/14 14:46:13;;;;;;;46.63;30.38;;;;;;;;;;4963437;28;20042;-90
2021/07/14 14:48:39;;;;;;;36.67;25.42;;;;;;;;;;4962978;28;20057;-91
2021/07/14 14:51:09;;;;;;;33.63;23.73;;;;;;;;;;4963925;28;20035;-92
2021/07/14 14:53:34;;;;;;;34.00;24.10;;;;;;;;;;4963044;28;20525;-91
2021/07/14 14:56:00;;;;;;;27.92;20.00;;;;;;;;;;4968739;28;20033;-88
2021/07/14 14:58:27;;;;;;;26.77;18.63;;;;;;;;;;4996583;28;20034;-88
2021/07/14 15:00:53;;;;;;;25.85;17.73;;;;;;;;;;4996857;28;20069;-84
2021/07/14 15:03:19;;;;;;;22.95;17.30;;;;;;;;;;4980189;28;20030;-88
2021/07/14 15:05:44;;;;;;;22.75;15.63;;;;;;;;;;4965039;28;20463;-89
2021/07/14 15:08:10;;;;;;;19.75;14.32;;;;;;;;;;4964778;28;20500;-88